createdAt,value
2019-04-11T00:01:36.774Z,99.90
2019-04-11T00:04:00.471Z,99.90
2019-04-11T00:06:30.339Z,99.90
2019-04-11T00:09:00.708Z,99.90
2019-04-11T00:11:31.930Z,99.90
2019-04-11T00:14:01.348Z,99.90
2019-04-11T00:16:31.095Z,99.90
2019-04-11T00:19:00.629Z,99.90
2019-04-11T00:21:30.920Z,99.90
2019-04-11T00:24:00.725Z,99.90
2019-04-11T00:26:30.567Z,99.90
2019-04-11T00:29:00.188Z,99.90
2019-04-11T00:31:30.645Z,99.90
2019-04-11T00:34:00.176Z,99.90
2019-04-11T00:36:30.535Z,99.90
2019-04-11T00:39:01.391Z,99.90
2019-04-11T00:41:34.377Z,99.90
2019-04-11T00:44:04.931Z,99.90
2019-04-11T00:46:34.313Z,99.90
2019-04-11T00:49:04.076Z,99.90
2019-04-11T00:51:34.070Z,99.90
2019-04-11T00:54:04.642Z,99.90
2019-04-11T00:56:34.535Z,99.90
2019-04-11T00:59:04.203Z,99.90
2019-04-11T01:01:33.707Z,99.90
2019-04-11T01:04:03.422Z,99.90
2019-04-11T01:06:34.335Z,99.90
2019-04-11T01:09:06.223Z,99.90
2019-04-11T01:11:36.211Z,99.90
2019-04-11T01:14:08.160Z,99.90
2019-04-11T01:16:43.023Z,99.90
2019-04-11T01:19:12.678Z,99.90
2019-04-11T01:21:42.405Z,99.90
2019-04-11T01:24:13.147Z,99.90
2019-04-11T01:26:43.409Z,99.90
2019-04-11T01:29:13.441Z,99.90
2019-04-11T01:31:44.611Z,99.90
2019-04-11T01:34:16.755Z,99.90
2019-04-11T01:36:46.978Z,99.90
2019-04-11T01:39:35.070Z,99.90
2019-04-11T01:42:06.909Z,99.90
2019-04-11T01:44:36.740Z,99.90
2019-04-11T01:47:08.731Z,99.90
2019-04-11T01:49:38.625Z,99.90
2019-04-11T01:52:08.102Z,99.90
2019-04-11T01:54:37.613Z,99.90
2019-04-11T01:57:09.733Z,99.90
2019-04-11T01:59:41.729Z,99.90
2019-04-11T02:02:29.006Z,99.90
2019-04-11T02:05:02.962Z,99.90
2019-04-11T02:07:32.475Z,99.90
2019-04-11T02:10:02.487Z,99.90
2019-04-11T02:12:32.133Z,99.90
2019-04-11T02:15:01.496Z,99.90
2019-04-11T02:17:30.931Z,99.90
2019-04-11T02:20:02.724Z,99.90
2019-04-11T02:22:52.839Z,99.90
2019-04-11T02:25:32.999Z,99.90
2019-04-11T02:28:04.426Z,99.90
2019-04-11T02:30:38.636Z,99.90
2019-04-11T02:33:11.539Z,99.90
2019-04-11T02:35:42.783Z,99.90
2019-04-11T02:38:14.847Z,99.90
2019-04-11T02:40:45.451Z,99.90
2019-04-11T02:43:17.432Z,99.90
2019-04-11T02:46:00.166Z,99.90
2019-04-11T02:48:18.365Z,99.90
2019-04-11T02:50:48.176Z,99.90
2019-04-11T02:53:21.333Z,99.90
2019-04-11T02:55:52.149Z,99.90
2019-04-11T02:58:23.105Z,99.90
2019-04-11T03:00:55.323Z,99.90
2019-04-11T03:03:27.284Z,99.90
2019-04-11T03:05:58.148Z,99.90
2019-04-11T03:08:32.017Z,99.90
2019-04-11T03:11:01.869Z,99.90
2019-04-11T03:13:33.354Z,99.90
2019-04-11T03:16:18.787Z,99.90
2019-04-11T03:18:53.521Z,99.90
2019-04-11T03:21:12.801Z,99.90
2019-04-11T03:23:37.444Z,99.90
2019-04-11T03:26:08.080Z,99.90
2019-04-11T03:28:40.689Z,99.90
2019-04-11T03:31:59.143Z,99.90
2019-04-11T03:39:11.781Z,99.90
2019-04-11T03:41:32.068Z,99.90
2019-04-11T03:44:01.874Z,99.90
2019-04-11T03:46:38.106Z,99.90
2019-04-11T03:49:03.867Z,99.90
2019-04-11T03:51:25.778Z,99.90
2019-04-11T03:53:56.777Z,99.90
2019-04-11T03:56:26.671Z,99.90
2019-04-11T03:58:57.774Z,99.90
2019-04-11T04:01:29.505Z,99.90
2019-04-11T04:04:00.580Z,99.90
2019-04-11T04:06:31.056Z,99.90
2019-04-11T04:09:02.586Z,99.90
2019-04-11T04:11:34.763Z,99.90
2019-04-11T04:14:06.066Z,99.90
2019-04-11T04:16:47.239Z,99.90
2019-04-11T04:19:16.239Z,99.90
2019-04-11T04:22:03.122Z,99.90
2019-04-11T04:24:39.314Z,99.90
2019-04-11T04:27:07.679Z,99.90
2019-04-11T04:29:41.412Z,99.90
2019-04-11T04:32:12.086Z,99.90
2019-04-11T04:34:42.224Z,99.90
2019-04-11T04:37:14.754Z,99.90
2019-04-11T04:39:45.736Z,99.90
2019-04-11T04:42:24.323Z,99.90
2019-04-11T04:44:47.176Z,99.90
2019-04-11T04:47:25.631Z,99.90
2019-04-11T04:49:48.870Z,99.90
2019-04-11T04:52:18.815Z,99.90
2019-04-11T04:54:48.681Z,99.90
2019-04-11T04:57:20.192Z,99.90
2019-04-11T04:59:53.143Z,99.90
2019-04-11T05:02:21.241Z,99.90
2019-04-11T05:04:52.147Z,99.90
2019-04-11T05:07:21.640Z,99.90
2019-04-11T05:09:51.088Z,99.90
2019-04-11T05:12:20.671Z,99.90
2019-04-11T05:14:51.823Z,99.90
2019-04-11T05:17:28.361Z,99.90
2019-04-11T05:19:56.457Z,99.90
2019-04-11T05:22:26.715Z,99.90
2019-04-11T05:24:59.288Z,99.90
2019-04-11T05:27:27.287Z,99.90
2019-04-11T05:29:56.777Z,99.90
2019-04-11T05:32:27.371Z,99.90
2019-04-11T05:34:58.386Z,99.90
2019-04-11T05:37:29.145Z,99.90
2019-04-11T05:39:58.859Z,99.90
2019-04-11T05:42:29.159Z,99.90
2019-04-11T05:45:00.026Z,99.90
2019-04-11T05:47:29.701Z,99.90
2019-04-11T05:50:13.766Z,99.90
2019-04-11T05:52:44.161Z,99.90
2019-04-11T05:55:15.568Z,99.90
2019-04-11T05:57:46.926Z,99.90
2019-04-11T06:00:19.306Z,99.90
2019-04-11T06:02:51.171Z,99.90
2019-04-11T06:05:32.354Z,99.90
2019-04-11T06:08:01.972Z,99.90
2019-04-11T06:10:43.648Z,99.90
2019-04-11T06:13:22.768Z,99.90
2019-04-11T06:16:00.281Z,99.90
2019-04-11T06:18:45.942Z,99.90
2019-04-11T06:21:17.921Z,99.90
2019-04-11T06:23:49.860Z,99.90
2019-04-11T06:26:27.048Z,99.90
2019-04-11T06:28:59.095Z,99.90
2019-04-11T06:34:24.090Z,99.90
2019-04-11T06:36:55.214Z,99.90
2019-04-11T06:39:27.412Z,99.90
2019-04-11T06:41:59.066Z,99.90
2019-04-11T06:45:02.204Z,99.90
2019-04-11T06:47:49.532Z,99.90
2019-04-11T06:50:35.383Z,99.90
2019-04-11T06:53:07.360Z,99.90
2019-04-11T06:55:57.355Z,99.90
2019-04-11T06:58:35.140Z,99.90
2019-04-11T07:01:07.046Z,99.90
2019-04-11T07:03:38.573Z,99.90
2019-04-11T07:06:09.640Z,99.90
2019-04-11T07:08:46.941Z,99.90
2019-04-11T07:11:18.248Z,99.90
2019-04-11T07:13:53.286Z,99.90
2019-04-11T07:16:23.034Z,99.90
2019-04-11T07:19:02.974Z,99.90
2019-04-11T07:21:33.729Z,99.90
2019-04-11T07:24:23.139Z,99.90
2019-04-11T07:26:54.392Z,99.90
2019-04-11T07:29:25.773Z,99.90
2019-04-11T07:32:03.206Z,99.90
2019-04-11T07:34:56.688Z,99.90
2019-04-11T07:37:28.075Z,99.90
2019-04-11T07:40:11.138Z,99.90
2019-04-11T07:42:43.445Z,99.90
2019-04-11T07:45:15.799Z,99.90
2019-04-11T07:47:46.909Z,99.90
2019-04-11T07:50:18.189Z,99.90
2019-04-11T07:52:51.636Z,99.90
2019-04-11T07:55:23.646Z,99.70
2019-04-11T07:57:57.289Z,99.90
2019-04-11T08:00:41.726Z,99.90
2019-04-11T08:03:12.989Z,99.90
2019-04-11T08:05:46.862Z,99.20
2019-04-11T08:08:33.058Z,98.90
2019-04-11T08:11:04.446Z,99.40
2019-04-11T08:13:47.083Z,99.70
2019-04-11T08:16:35.068Z,99.50
2019-04-11T08:19:10.311Z,98.00
2019-04-11T08:21:58.667Z,97.80
2019-04-11T08:24:30.084Z,98.40
2019-04-11T08:27:17.615Z,97.70
2019-04-11T08:29:50.104Z,96.70
2019-04-11T08:32:37.999Z,96.60
2019-04-11T08:35:19.774Z,96.80
2019-04-11T08:37:58.033Z,96.70
2019-04-11T08:40:33.638Z,96.20
2019-04-11T08:43:10.995Z,96.10
2019-04-11T08:45:42.342Z,95.50
2019-04-11T08:48:13.002Z,95.30
2019-04-11T08:50:44.914Z,95.50
2019-04-11T08:53:20.500Z,94.80
2019-04-11T08:56:02.643Z,94.90
2019-04-11T08:58:42.709Z,94.80
2019-04-11T09:01:18.306Z,94.40
2019-04-11T09:03:59.824Z,94.60
2019-04-11T09:06:22.928Z,93.80
2019-04-11T09:08:59.964Z,94.10
2019-04-11T09:11:33.108Z,93.80
2019-04-11T09:14:11.527Z,94.60
2019-04-11T09:17:01.673Z,94.70
2019-04-11T09:19:49.389Z,94.10
2019-04-11T09:22:33.208Z,92.90
2019-04-11T09:27:58.267Z,93.40
2019-04-11T09:30:45.555Z,93.00
2019-04-11T09:33:35.125Z,92.80
2019-04-11T09:36:09.838Z,91.90
2019-04-11T09:38:46.715Z,90.50
2019-04-11T09:41:20.547Z,90.80
2019-04-11T09:43:50.519Z,90.50
2019-04-11T09:46:26.120Z,89.60
2019-04-11T09:49:13.621Z,87.90
2019-04-11T09:51:51.889Z,90.10
2019-04-11T09:54:23.997Z,87.60
2019-04-11T09:56:56.010Z,86.30
2019-04-11T09:59:31.477Z,85.10
2019-04-11T10:02:03.889Z,79.70
2019-04-11T10:04:36.041Z,83.70
2019-04-11T10:07:17.539Z,86.70
2019-04-11T10:10:04.588Z,89.10
2019-04-11T10:12:52.113Z,90.10
2019-04-11T10:15:23.299Z,87.30
2019-04-11T10:18:19.995Z,87.30
2019-04-11T10:20:42.651Z,82.10
2019-04-11T10:23:26.960Z,86.90
2019-04-11T10:25:57.699Z,86.80
2019-04-11T10:28:49.582Z,87.30
2019-04-11T10:31:18.299Z,89.00
2019-04-11T10:33:57.992Z,88.10
2019-04-11T10:36:29.561Z,85.00
2019-04-11T10:39:18.152Z,84.50
2019-04-11T10:41:50.570Z,83.70
2019-04-11T10:44:38.800Z,81.70
2019-04-11T10:47:10.113Z,80.70
2019-04-11T10:49:54.595Z,80.90
2019-04-11T10:52:26.634Z,82.70
2019-04-11T10:55:13.579Z,76.10
2019-04-11T10:57:44.707Z,78.50
2019-04-11T11:00:16.254Z,77.10
2019-04-11T11:02:56.066Z,72.80
2019-04-11T11:05:30.507Z,72.40
2019-04-11T11:08:01.842Z,78.30
2019-04-11T11:10:35.518Z,75.10
2019-04-11T11:13:07.782Z,75.00
2019-04-11T11:15:38.162Z,80.10
2019-04-11T11:18:42.920Z,79.70
2019-04-11T11:20:58.836Z,77.30
2019-04-11T11:23:44.962Z,71.40
2019-04-11T11:26:19.735Z,68.70
2019-04-11T11:29:11.590Z,66.70
2019-04-11T11:31:46.483Z,63.90
2019-04-11T11:34:20.850Z,67.00
2019-04-11T11:36:55.061Z,69.10
2019-04-11T11:39:26.897Z,67.70
2019-04-11T11:42:14.458Z,68.60
2019-04-11T11:44:51.355Z,67.10
2019-04-11T11:47:41.213Z,64.50
2019-04-11T11:50:18.133Z,62.80
2019-04-11T11:53:05.849Z,56.50
2019-04-11T11:55:41.490Z,61.80
2019-04-11T11:58:25.774Z,65.70
2019-04-11T12:01:01.202Z,67.30
2019-04-11T12:03:37.228Z,65.80
2019-04-11T12:06:09.644Z,62.50
2019-04-11T12:08:58.145Z,61.20
2019-04-11T12:11:28.321Z,62.20
2019-04-11T12:14:02.193Z,64.10
2019-04-11T12:16:39.730Z,65.10
2019-04-11T12:19:10.957Z,65.20
2019-04-11T12:21:41.001Z,69.70
2019-04-11T12:24:25.069Z,63.50
2019-04-11T12:26:59.903Z,63.00
2019-04-11T12:29:34.367Z,59.30
2019-04-11T12:32:06.280Z,60.00
2019-04-11T12:34:38.646Z,59.60
2019-04-11T12:37:25.298Z,59.80
2019-04-11T12:39:59.144Z,62.70
2019-04-11T12:42:33.047Z,60.10
2019-04-11T12:45:20.459Z,62.20
2019-04-11T12:47:49.963Z,62.70
2019-04-11T12:50:37.224Z,64.10
2019-04-11T12:53:08.127Z,59.40
2019-04-11T12:55:39.327Z,64.30
2019-04-11T12:58:10.415Z,67.40
2019-04-11T13:00:41.484Z,62.50
2019-04-11T13:03:24.236Z,62.50
2019-04-11T13:06:13.405Z,61.30
2019-04-11T13:08:47.312Z,62.90
2019-04-11T13:11:20.955Z,60.20
2019-04-11T13:13:51.974Z,63.50
2019-04-11T13:16:22.613Z,64.70
2019-04-11T13:19:02.360Z,63.70
2019-04-11T13:21:34.888Z,62.50
2019-04-11T13:24:23.436Z,61.20
2019-04-11T13:27:11.071Z,58.90
2019-04-11T13:29:44.695Z,62.80
2019-04-11T13:32:30.877Z,58.80
2019-04-11T13:35:02.029Z,64.30
2019-04-11T13:37:49.677Z,61.10
2019-04-11T13:40:29.965Z,61.70
2019-04-11T13:43:17.595Z,57.20
2019-04-11T13:45:55.285Z,58.40
2019-04-11T13:48:44.329Z,61.20
2019-04-11T13:51:30.354Z,62.20
2019-04-11T13:54:16.705Z,61.00
2019-04-11T14:00:04.069Z,65.30
2019-04-11T14:02:51.064Z,59.30
2019-04-11T14:05:17.696Z,61.60
2019-04-11T14:07:48.651Z,59.60
2019-04-11T14:10:31.730Z,60.70
2019-04-11T14:13:03.470Z,58.90
2019-04-11T14:15:36.423Z,59.40
2019-04-11T14:18:19.053Z,62.60
2019-04-11T14:21:00.071Z,58.80
2019-04-11T14:23:49.019Z,56.50
2019-04-11T14:26:22.922Z,58.40
2019-04-11T14:28:53.752Z,57.60
2019-04-11T14:31:24.818Z,56.80
2019-04-11T14:34:04.810Z,59.70
2019-04-11T14:36:38.761Z,62.10
2019-04-11T14:39:09.924Z,61.20
2019-04-11T14:44:31.501Z,60.50
2019-04-11T14:47:06.648Z,55.40
2019-04-11T14:49:35.114Z,55.00
2019-04-11T14:52:08.770Z,55.70
2019-04-11T14:54:42.751Z,54.60
2019-04-11T14:57:22.820Z,59.20
2019-04-11T14:59:54.104Z,59.30
2019-04-11T15:02:25.133Z,58.10
2019-04-11T15:04:56.144Z,63.10
2019-04-11T15:07:25.662Z,59.60
2019-04-11T15:10:09.800Z,67.70
2019-04-11T15:12:40.134Z,69.10
2019-04-11T15:15:19.276Z,69.80
2019-04-11T15:17:49.312Z,70.80
2019-04-11T15:20:26.032Z,68.80
2019-04-11T15:23:06.655Z,65.00
2019-04-11T15:25:46.213Z,60.90
2019-04-11T15:28:18.859Z,58.40
2019-04-11T15:30:52.671Z,61.00
2019-04-11T15:33:39.729Z,61.40
2019-04-11T15:36:10.723Z,62.50
2019-04-11T15:38:47.729Z,59.70
2019-04-11T15:41:17.137Z,59.00
2019-04-11T15:43:48.140Z,63.00
2019-04-11T15:46:19.161Z,61.50
2019-04-11T15:49:02.331Z,59.20
2019-04-11T15:51:35.090Z,63.60
2019-04-11T15:54:16.460Z,64.00
2019-04-11T15:56:50.473Z,65.10
2019-04-11T15:59:43.807Z,63.20
2019-04-11T16:02:12.551Z,67.50
2019-04-11T16:04:49.374Z,68.00
2019-04-11T16:07:23.053Z,67.00
2019-04-11T16:09:57.175Z,63.20
2019-04-11T16:15:19.352Z,62.90
2019-04-11T16:17:50.352Z,56.50
2019-04-11T16:20:19.732Z,61.50
2019-04-11T16:23:08.701Z,65.10
2019-04-11T16:25:38.147Z,65.00
2019-04-11T16:28:26.971Z,64.60
2019-04-11T16:30:58.114Z,63.10
2019-04-11T16:33:45.620Z,68.30
2019-04-11T16:36:14.109Z,64.80
2019-04-11T16:38:46.914Z,60.40
2019-04-11T16:41:36.627Z,58.50
2019-04-11T16:44:13.649Z,59.70
2019-04-11T16:46:56.789Z,66.10
2019-04-11T16:49:26.599Z,72.30
2019-04-11T16:51:56.157Z,72.30
2019-04-11T16:54:25.578Z,73.30
2019-04-11T16:56:56.046Z,74.00
2019-04-11T16:59:25.893Z,79.00
2019-04-11T17:01:55.356Z,81.60
2019-04-11T17:04:26.087Z,83.90
2019-04-11T17:07:14.037Z,81.30
2019-04-11T17:09:48.063Z,74.40
2019-04-11T17:12:19.048Z,71.90
2019-04-11T17:14:48.424Z,76.80
2019-04-11T17:17:17.803Z,78.30
2019-04-11T17:19:47.262Z,77.40
2019-04-11T17:22:16.794Z,74.00
2019-04-11T17:24:48.544Z,69.20
2019-04-11T17:27:20.996Z,68.50
2019-04-11T17:29:54.782Z,72.30
2019-04-11T17:32:25.782Z,78.50
2019-04-11T17:34:54.822Z,75.10
2019-04-11T17:37:24.239Z,87.60
2019-04-11T17:39:53.598Z,88.10
2019-04-11T17:42:22.968Z,85.00
2019-04-11T17:44:52.484Z,83.90
2019-04-11T17:47:30.341Z,84.80
2019-04-11T17:49:59.668Z,86.40
2019-04-11T17:52:29.249Z,85.90
2019-04-11T17:55:00.184Z,85.00
2019-04-11T17:57:29.898Z,86.30
2019-04-11T17:59:59.771Z,87.80
2019-04-11T18:02:29.367Z,89.30
2019-04-11T18:04:59.142Z,89.50
2019-04-11T18:07:28.641Z,89.30
2019-04-11T18:10:00.235Z,90.10
2019-04-11T18:12:29.592Z,90.60
2019-04-11T18:14:59.895Z,91.60
2019-04-11T18:17:30.215Z,91.30
2019-04-11T18:19:59.700Z,91.60
2019-04-11T18:22:29.228Z,91.00
2019-04-11T18:24:58.686Z,91.30
2019-04-11T18:27:28.211Z,91.80
2019-04-11T18:29:57.664Z,92.10
2019-04-11T18:32:27.089Z,92.10
2019-04-11T18:34:56.473Z,91.70
2019-04-11T18:37:25.956Z,90.70
2019-04-11T18:39:55.324Z,91.40
2019-04-11T18:42:24.763Z,91.00
2019-04-11T18:44:54.191Z,90.60
2019-04-11T18:47:25.335Z,90.60
2019-04-11T18:49:56.225Z,90.80
2019-04-11T18:52:28.874Z,90.30
2019-04-11T18:54:56.822Z,89.90
2019-04-11T18:57:26.259Z,90.70
2019-04-11T18:59:55.625Z,91.20
2019-04-11T19:02:25.125Z,91.80
2019-04-11T19:04:54.553Z,92.30
2019-04-11T19:07:28.085Z,92.30
2019-04-11T19:09:55.068Z,92.60
2019-04-11T19:12:24.481Z,92.90
2019-04-11T19:14:53.871Z,93.20
2019-04-11T19:17:23.250Z,93.70
2019-04-11T19:19:52.631Z,94.40
2019-04-11T19:22:36.635Z,94.70
2019-04-11T19:24:53.116Z,94.30
2019-04-11T19:27:22.455Z,94.40
2019-04-11T19:29:55.593Z,94.10
2019-04-11T19:32:22.970Z,94.10
2019-04-11T19:34:52.491Z,94.60
2019-04-11T19:37:21.853Z,94.70
2019-04-11T19:39:51.295Z,94.70
2019-04-11T19:42:20.716Z,94.50
2019-04-11T19:44:50.363Z,94.80
2019-04-11T19:47:21.784Z,94.80
2019-04-11T19:49:53.521Z,95.10
2019-04-11T19:52:22.916Z,94.50
2019-04-11T19:54:52.919Z,94.50
2019-04-11T19:57:22.372Z,94.40
2019-04-11T19:59:51.793Z,94.60
2019-04-11T20:02:23.562Z,95.20
2019-04-11T20:04:52.652Z,95.70
2019-04-11T20:07:22.079Z,95.00
2019-04-11T20:09:51.618Z,95.00
2019-04-11T20:12:21.057Z,95.00
2019-04-11T20:14:50.519Z,95.50
2019-04-11T20:17:20.036Z,95.40
2019-04-11T20:20:00.816Z,96.10
2019-04-11T20:22:21.549Z,96.00
2019-04-11T20:24:51.008Z,96.30
2019-04-11T20:27:20.953Z,96.60
2019-04-11T20:29:53.134Z,96.60
2019-04-11T20:32:21.776Z,96.90
2019-04-11T20:34:51.196Z,97.00
2019-04-11T20:37:20.687Z,97.20
2019-04-11T20:39:50.058Z,97.20
2019-04-11T20:42:24.050Z,97.20
2019-04-11T20:44:52.229Z,97.20
2019-04-11T20:47:21.626Z,97.70
2019-04-11T20:49:51.110Z,97.30
2019-04-11T20:52:20.536Z,97.60
2019-04-11T20:54:51.427Z,97.60
2019-04-11T20:57:26.023Z,97.70
2019-04-11T20:59:51.926Z,97.90
2019-04-11T21:02:21.314Z,98.30
2019-04-11T21:04:50.674Z,98.10
2019-04-11T21:07:20.099Z,98.40
2019-04-11T21:09:51.020Z,98.20
2019-04-11T21:12:20.546Z,98.30
2019-04-11T21:14:51.677Z,98.70
2019-04-11T21:17:22.702Z,98.80
2019-04-11T21:19:53.252Z,98.70
2019-04-11T21:22:24.289Z,98.70
2019-04-11T21:24:55.234Z,99.00
2019-04-11T21:27:28.567Z,99.30
2019-04-11T21:29:59.760Z,99.80
2019-04-11T21:32:29.030Z,99.90
2019-04-11T21:35:01.757Z,99.90
2019-04-11T21:37:30.180Z,99.90
2019-04-11T21:40:00.188Z,99.90
2019-04-11T21:42:29.635Z,99.80
2019-04-11T21:44:58.981Z,99.90
2019-04-11T21:47:28.335Z,99.90
2019-04-11T21:49:57.697Z,99.90
2019-04-11T21:52:28.673Z,99.90
2019-04-11T21:54:58.114Z,99.90
2019-04-11T21:57:27.545Z,99.90
2019-04-11T21:59:56.964Z,99.90
2019-04-11T22:02:26.493Z,99.90
2019-04-11T22:04:58.505Z,99.90
2019-04-11T22:07:30.837Z,99.90
2019-04-11T22:09:58.199Z,99.90
2019-04-11T22:12:27.590Z,99.90
2019-04-11T22:14:58.082Z,99.90
2019-04-11T22:17:27.492Z,99.90
2019-04-11T22:19:56.869Z,99.90
2019-04-11T22:22:26.210Z,99.90
2019-04-11T22:24:55.588Z,99.90
2019-04-11T22:27:24.977Z,99.90
2019-04-11T22:29:55.167Z,99.90
2019-04-11T22:32:25.903Z,99.90
2019-04-11T22:34:56.830Z,99.90
2019-04-11T22:37:27.738Z,99.90
2019-04-11T22:40:01.799Z,99.90
2019-04-11T22:42:29.262Z,99.90
2019-04-11T22:44:58.611Z,99.90
2019-04-11T22:47:29.783Z,99.90
2019-04-11T22:49:59.499Z,99.90
2019-04-11T22:52:28.936Z,99.90
2019-04-11T22:54:58.277Z,99.90
2019-04-11T22:57:27.716Z,99.90
2019-04-11T22:59:57.152Z,99.90
2019-04-11T23:02:36.916Z,99.90
2019-04-11T23:05:06.484Z,99.90
2019-04-11T23:07:36.019Z,99.90
2019-04-11T23:10:07.621Z,99.90
2019-04-11T23:12:42.893Z,99.90
2019-04-11T23:15:15.087Z,99.90
2019-04-11T23:17:44.712Z,99.90
2019-04-11T23:20:15.034Z,99.90
2019-04-11T23:22:44.890Z,99.90
2019-04-11T23:25:14.242Z,99.90
2019-04-11T23:27:45.351Z,99.90
2019-04-11T23:30:15.889Z,99.90
2019-04-11T23:32:46.617Z,99.90
2019-04-11T23:35:17.749Z,99.90
2019-04-11T23:37:52.815Z,99.90
2019-04-11T23:40:22.393Z,99.90
2019-04-11T23:42:52.138Z,99.90
2019-04-11T23:45:23.219Z,99.90
2019-04-11T23:47:54.084Z,99.90
2019-04-11T23:50:25.916Z,99.90
2019-04-11T23:52:57.258Z,99.90
2019-04-11T23:55:30.058Z,99.90
2019-04-11T23:57:57.055Z,99.90
